Terminal Aerodrome Forecast
Issued by NWS

Home | Current Version | Previous Version | Text Only | Print | Product List | Glossary On
Versions: 1 2 3 4 5 6 7 8 9 10 11 12 13 14 15 16
000
FTUS44 KLZK 230500
TAFBPK
TAF
KBPK 230537Z 2306/2406 14010KT 6SM BR SCT020 BKN060 WS020/19035KT
     FM230800 14010KT 5SM BR VCTS SCT007 OVC020CB WS020/19035KT
      TEMPO 2308/2312 3SM TSRA BR BKN007CB
     FM231200 13010KT 5SM -RA BR VCTS OVC008CB WS020/19040KT
     FM231800 14007KT 5SM BR VCSH SCT008 BKN012
     FM240200 20010G16KT P6SM SCT012 BKN025=

USA.gov is the U.S. government's official web portal to all federal, state and local government web resources and services.